sensor_id;sensor_type;location;lat;lon;timestamp;P1;durP1;ratioP1;P2;durP2;ratioP2
11486;SDS011;10510;47.942;9.442;2022-08-21T00:00:00;6.22;;;2.20;;
11486;SDS011;10510;47.942;9.442;2022-08-21T00:02:02;2.75;;;1.77;;
11486;SDS011;10510;47.942;9.442;2022-08-21T00:04:04;2.55;;;2.00;;
11486;SDS011;10510;47.942;9.442;2022-08-21T00:06:06;5.18;;;1.73;;
11486;SDS011;10510;47.942;9.442;2022-08-21T00:08:06;3.30;;;1.80;;
11486;SDS011;10510;47.942;9.442;2022-08-21T00:10:07;9.15;;;1.70;;
11486;SDS011;10510;47.942;9.442;2022-08-21T00:12:09;3.15;;;1.95;;
11486;SDS011;10510;47.942;9.442;2022-08-21T00:14:10;3.85;;;1.60;;
11486;SDS011;10510;47.942;9.442;2022-08-21T00:16:11;3.50;;;1.80;;
11486;SDS011;10510;47.942;9.442;2022-08-21T00:18:11;6.75;;;1.67;;
11486;SDS011;10510;47.942;9.442;2022-08-21T00:20:13;2.20;;;1.65;;
11486;SDS011;10510;47.942;9.442;2022-08-21T00:22:14;3.60;;;1.52;;
11486;SDS011;10510;47.942;9.442;2022-08-21T00:24:14;3.92;;;1.48;;
11486;SDS011;10510;47.942;9.442;2022-08-21T00:26:14;2.08;;;1.50;;
11486;SDS011;10510;47.942;9.442;2022-08-21T00:28:15;1.95;;;1.40;;
11486;SDS011;10510;47.942;9.442;2022-08-21T00:30:16;1.83;;;1.20;;
11486;SDS011;10510;47.942;9.442;2022-08-21T00:32:19;4.07;;;1.40;;
11486;SDS011;10510;47.942;9.442;2022-08-21T00:34:21;1.65;;;1.40;;
11486;SDS011;10510;47.942;9.442;2022-08-21T00:36:21;2.20;;;1.55;;
11486;SDS011;10510;47.942;9.442;2022-08-21T00:38:22;2.35;;;1.80;;
11486;SDS011;10510;47.942;9.442;2022-08-21T00:40:25;4.93;;;2.05;;
11486;SDS011;10510;47.942;9.442;2022-08-21T00:42:32;2.88;;;2.00;;
11486;SDS011;10510;47.942;9.442;2022-08-21T00:44:32;3.88;;;1.90;;
11486;SDS011;10510;47.942;9.442;2022-08-21T00:46:33;2.53;;;2.03;;
11486;SDS011;10510;47.942;9.442;2022-08-21T00:48:34;8.13;;;2.47;;
11486;SDS011;10510;47.942;9.442;2022-08-21T00:50:35;5.93;;;1.73;;
11486;SDS011;10510;47.942;9.442;2022-08-21T00:52:40;4.03;;;1.88;;
11486;SDS011;10510;47.942;9.442;2022-08-21T00:54:42;3.33;;;2.25;;
11486;SDS011;10510;47.942;9.442;2022-08-21T00:56:43;2.72;;;2.00;;
11486;SDS011;10510;47.942;9.442;2022-08-21T00:58:43;4.93;;;2.72;;
11486;SDS011;10510;47.942;9.442;2022-08-21T01:00:44;4.45;;;1.63;;
11486;SDS011;10510;47.942;9.442;2022-08-21T01:02:47;2.97;;;2.20;;
11486;SDS011;10510;47.942;9.442;2022-08-21T01:04:47;3.08;;;2.00;;
11486;SDS011;10510;47.942;9.442;2022-08-21T01:06:48;5.32;;;2.50;;
11486;SDS011;10510;47.942;9.442;2022-08-21T01:08:49;6.18;;;2.00;;
11486;SDS011;10510;47.942;9.442;2022-08-21T01:10:50;4.93;;;1.90;;
11486;SDS011;10510;47.942;9.442;2022-08-21T01:12:53;5.80;;;2.10;;
11486;SDS011;10510;47.942;9.442;2022-08-21T01:14:54;6.55;;;3.00;;
11486;SDS011;10510;47.942;9.442;2022-08-21T01:16:55;6.30;;;3.45;;
11486;SDS011;10510;47.942;9.442;2022-08-21T01:18:57;11.15;;;3.30;;
11486;SDS011;10510;47.942;9.442;2022-08-21T01:21:00;7.45;;;3.50;;
11486;SDS011;10510;47.942;9.442;2022-08-21T01:23:05;5.18;;;3.45;;
11486;SDS011;10510;47.942;9.442;2022-08-21T01:25:07;5.75;;;2.90;;
11486;SDS011;10510;47.942;9.442;2022-08-21T01:27:09;2.97;;;2.28;;
11486;SDS011;10510;47.942;9.442;2022-08-21T01:31:17;6.15;;;2.47;;
11486;SDS011;10510;47.942;9.442;2022-08-21T01:33:22;9.60;;;2.88;;
11486;SDS011;10510;47.942;9.442;2022-08-21T01:35:24;6.63;;;2.25;;
11486;SDS011;10510;47.942;9.442;2022-08-21T01:37:25;4.50;;;2.33;;
11486;SDS011;10510;47.942;9.442;2022-08-21T01:39:25;3.45;;;2.10;;
11486;SDS011;10510;47.942;9.442;2022-08-21T01:41:25;2.97;;;2.15;;
11486;SDS011;10510;47.942;9.442;2022-08-21T01:43:25;2.88;;;2.13;;
11486;SDS011;10510;47.942;9.442;2022-08-21T01:45:26;3.60;;;2.15;;
11486;SDS011;10510;47.942;9.442;2022-08-21T01:47:26;5.25;;;2.33;;
11486;SDS011;10510;47.942;9.442;2022-08-21T01:49:27;3.30;;;2.45;;
11486;SDS011;10510;47.942;9.442;2022-08-21T01:51:27;4.57;;;2.47;;
11486;SDS011;10510;47.942;9.442;2022-08-21T01:53:27;3.28;;;2.58;;
11486;SDS011;10510;47.942;9.442;2022-08-21T01:55:28;3.40;;;2.80;;
11486;SDS011;10510;47.942;9.442;2022-08-21T01:57:28;3.60;;;2.80;;
11486;SDS011;10510;47.942;9.442;2022-08-21T01:59:28;3.63;;;2.47;;
11486;SDS011;10510;47.942;9.442;2022-08-21T02:01:29;4.15;;;2.97;;
11486;SDS011;10510;47.942;9.442;2022-08-21T02:03:29;5.10;;;2.30;;
11486;SDS011;10510;47.942;9.442;2022-08-21T02:05:30;3.45;;;1.98;;
11486;SDS011;10510;47.942;9.442;2022-08-21T02:07:43;3.35;;;2.42;;
11486;SDS011;10510;47.942;9.442;2022-08-21T02:09:47;4.25;;;2.50;;
11486;SDS011;10510;47.942;9.442;2022-08-21T02:11:47;3.63;;;2.80;;
11486;SDS011;10510;47.942;9.442;2022-08-21T02:13:47;3.33;;;2.58;;
11486;SDS011;10510;47.942;9.442;2022-08-21T02:15:48;5.55;;;2.88;;
11486;SDS011;10510;47.942;9.442;2022-08-21T02:17:50;5.18;;;2.92;;
11486;SDS011;10510;47.942;9.442;2022-08-21T02:19:53;5.47;;;2.50;;
11486;SDS011;10510;47.942;9.442;2022-08-21T02:21:53;3.72;;;2.83;;
11486;SDS011;10510;47.942;9.442;2022-08-21T02:23:54;5.93;;;2.25;;
11486;SDS011;10510;47.942;9.442;2022-08-21T02:25:55;3.63;;;2.40;;
11486;SDS011;10510;47.942;9.442;2022-08-21T02:27:58;12.77;;;3.47;;
11486;SDS011;10510;47.942;9.442;2022-08-21T02:29:59;9.50;;;3.70;;
11486;SDS011;10510;47.942;9.442;2022-08-21T02:31:59;13.75;;;4.55;;
11486;SDS011;10510;47.942;9.442;2022-08-21T02:34:00;21.25;;;4.25;;
11486;SDS011;10510;47.942;9.442;2022-08-21T02:36:00;41.45;;;4.20;;
11486;SDS011;10510;47.942;9.442;2022-08-21T02:38:03;40.35;;;4.22;;
11486;SDS011;10510;47.942;9.442;2022-08-21T02:40:06;40.47;;;4.47;;
11486;SDS011;10510;47.942;9.442;2022-08-21T02:42:09;44.67;;;4.07;;
11486;SDS011;10510;47.942;9.442;2022-08-21T02:44:09;37.42;;;4.30;;
11486;SDS011;10510;47.942;9.442;2022-08-21T02:46:10;30.55;;;4.22;;
11486;SDS011;10510;47.942;9.442;2022-08-21T02:48:15;32.15;;;3.97;;
11486;SDS011;10510;47.942;9.442;2022-08-21T02:50:19;18.92;;;3.90;;
11486;SDS011;10510;47.942;9.442;2022-08-21T02:52:21;15.63;;;3.90;;
11486;SDS011;10510;47.942;9.442;2022-08-21T02:54:22;53.80;;;5.55;;
11486;SDS011;10510;47.942;9.442;2022-08-21T02:56:22;37.40;;;4.55;;
11486;SDS011;10510;47.942;9.442;2022-08-21T02:58:27;27.08;;;4.47;;
11486;SDS011;10510;47.942;9.442;2022-08-21T03:00:30;31.75;;;4.78;;
11486;SDS011;10510;47.942;9.442;2022-08-21T03:02:32;39.78;;;4.50;;
11486;SDS011;10510;47.942;9.442;2022-08-21T03:04:32;17.00;;;4.30;;
11486;SDS011;10510;47.942;9.442;2022-08-21T03:06:33;25.20;;;4.68;;
11486;SDS011;10510;47.942;9.442;2022-08-21T03:08:33;24.42;;;4.50;;
11486;SDS011;10510;47.942;9.442;2022-08-21T03:10:36;19.33;;;4.10;;
11486;SDS011;10510;47.942;9.442;2022-08-21T03:12:41;6.13;;;3.55;;
11486;SDS011;10510;47.942;9.442;2022-08-21T03:14:42;6.43;;;3.53;;
11486;SDS011;10510;47.942;9.442;2022-08-21T03:16:42;5.32;;;3.63;;
11486;SDS011;10510;47.942;9.442;2022-08-21T03:18:42;5.65;;;3.47;;
11486;SDS011;10510;47.942;9.442;2022-08-21T03:20:43;5.40;;;3.25;;
11486;SDS011;10510;47.942;9.442;2022-08-21T03:22:45;8.88;;;3.40;;
11486;SDS011;10510;47.942;9.442;2022-08-21T03:24:46;13.80;;;3.60;;
11486;SDS011;10510;47.942;9.442;2022-08-21T03:26:46;5.75;;;3.47;;
11486;SDS011;10510;47.942;9.442;2022-08-21T03:28:46;47.08;;;4.63;;
11486;SDS011;10510;47.942;9.442;2022-08-21T03:30:47;16.98;;;4.03;;
11486;SDS011;10510;47.942;9.442;2022-08-21T03:32:49;4.45;;;3.28;;
11486;SDS011;10510;47.942;9.442;2022-08-21T03:34:50;6.22;;;2.65;;
11486;SDS011;10510;47.942;9.442;2022-08-21T03:36:51;4.90;;;2.80;;
11486;SDS011;10510;47.942;9.442;2022-08-21T03:38:51;4.88;;;3.08;;
11486;SDS011;10510;47.942;9.442;2022-08-21T03:40:51;13.35;;;3.70;;
11486;SDS011;10510;47.942;9.442;2022-08-21T03:42:52;5.65;;;3.85;;
11486;SDS011;10510;47.942;9.442;2022-08-21T03:44:52;5.32;;;3.47;;
11486;SDS011;10510;47.942;9.442;2022-08-21T03:46:52;5.47;;;3.15;;
11486;SDS011;10510;47.942;9.442;2022-08-21T03:48:52;7.30;;;3.25;;
11486;SDS011;10510;47.942;9.442;2022-08-21T03:50:53;5.63;;;3.45;;
11486;SDS011;10510;47.942;9.442;2022-08-21T03:52:54;6.28;;;3.40;;
11486;SDS011;10510;47.942;9.442;2022-08-21T03:54:54;4.82;;;3.42;;
11486;SDS011;10510;47.942;9.442;2022-08-21T03:56:55;5.85;;;3.60;;
11486;SDS011;10510;47.942;9.442;2022-08-21T03:58:56;9.55;;;3.53;;
11486;SDS011;10510;47.942;9.442;2022-08-21T04:00:57;5.57;;;3.33;;
11486;SDS011;10510;47.942;9.442;2022-08-21T04:02:59;7.78;;;3.08;;
11486;SDS011;10510;47.942;9.442;2022-08-21T04:05:00;15.65;;;3.20;;
11486;SDS011;10510;47.942;9.442;2022-08-21T04:07:00;17.70;;;3.55;;
11486;SDS011;10510;47.942;9.442;2022-08-21T04:09:01;28.65;;;4.15;;
11486;SDS011;10510;47.942;9.442;2022-08-21T04:11:01;18.67;;;4.03;;
11486;SDS011;10510;47.942;9.442;2022-08-21T04:13:02;23.15;;;3.75;;
11486;SDS011;10510;47.942;9.442;2022-08-21T04:15:04;28.25;;;4.50;;
11486;SDS011;10510;47.942;9.442;2022-08-21T04:17:04;20.88;;;4.45;;
11486;SDS011;10510;47.942;9.442;2022-08-21T04:19:05;29.27;;;4.82;;
11486;SDS011;10510;47.942;9.442;2022-08-21T04:21:05;35.67;;;4.70;;
11486;SDS011;10510;47.942;9.442;2022-08-21T04:23:10;54.95;;;5.85;;
11486;SDS011;10510;47.942;9.442;2022-08-21T04:25:10;39.03;;;5.63;;
11486;SDS011;10510;47.942;9.442;2022-08-21T04:27:12;43.05;;;4.70;;
11486;SDS011;10510;47.942;9.442;2022-08-21T04:29:12;71.50;;;5.50;;
11486;SDS011;10510;47.942;9.442;2022-08-21T04:31:13;70.50;;;5.95;;
11486;SDS011;10510;47.942;9.442;2022-08-21T04:33:13;48.17;;;5.90;;
11486;SDS011;10510;47.942;9.442;2022-08-21T04:35:14;44.83;;;5.15;;
11486;SDS011;10510;47.942;9.442;2022-08-21T04:37:16;68.65;;;5.90;;
11486;SDS011;10510;47.942;9.442;2022-08-21T04:39:16;50.88;;;5.85;;
11486;SDS011;10510;47.942;9.442;2022-08-21T04:41:16;38.75;;;6.20;;
11486;SDS011;10510;47.942;9.442;2022-08-21T04:43:17;27.33;;;4.50;;
11486;SDS011;10510;47.942;9.442;2022-08-21T04:47:38;22.45;;;4.68;;
11486;SDS011;10510;47.942;9.442;2022-08-21T04:49:38;27.10;;;4.80;;
11486;SDS011;10510;47.942;9.442;2022-08-21T04:51:38;14.20;;;4.50;;
11486;SDS011;10510;47.942;9.442;2022-08-21T04:56:17;11.93;;;3.38;;
11486;SDS011;10510;47.942;9.442;2022-08-21T04:58:21;11.57;;;3.08;;
11486;SDS011;10510;47.942;9.442;2022-08-21T05:00:24;12.43;;;3.28;;
11486;SDS011;10510;47.942;9.442;2022-08-21T05:02:24;7.13;;;2.88;;
11486;SDS011;10510;47.942;9.442;2022-08-21T05:04:25;6.90;;;3.15;;
11486;SDS011;10510;47.942;9.442;2022-08-21T05:06:30;9.23;;;3.00;;
11486;SDS011;10510;47.942;9.442;2022-08-21T05:08:33;5.35;;;2.83;;
11486;SDS011;10510;47.942;9.442;2022-08-21T05:10:33;6.47;;;3.30;;
11486;SDS011;10510;47.942;9.442;2022-08-21T05:12:34;19.10;;;3.50;;
11486;SDS011;10510;47.942;9.442;2022-08-21T05:14:35;8.73;;;2.95;;
11486;SDS011;10510;47.942;9.442;2022-08-21T05:16:36;17.10;;;3.03;;
11486;SDS011;10510;47.942;9.442;2022-08-21T05:18:36;4.90;;;2.70;;
11486;SDS011;10510;47.942;9.442;2022-08-21T05:20:36;9.45;;;2.88;;
11486;SDS011;10510;47.942;9.442;2022-08-21T05:22:37;13.48;;;3.72;;
11486;SDS011;10510;47.942;9.442;2022-08-21T05:24:37;6.97;;;3.97;;
11486;SDS011;10510;47.942;9.442;2022-08-21T05:26:38;14.38;;;3.50;;
11486;SDS011;10510;47.942;9.442;2022-08-21T05:28:39;14.63;;;3.08;;
11486;SDS011;10510;47.942;9.442;2022-08-21T05:30:39;5.90;;;3.20;;
11486;SDS011;10510;47.942;9.442;2022-08-21T05:32:40;5.65;;;3.47;;
11486;SDS011;10510;47.942;9.442;2022-08-21T05:34:40;7.72;;;2.88;;
11486;SDS011;10510;47.942;9.442;2022-08-21T05:36:40;5.22;;;3.50;;
11486;SDS011;10510;47.942;9.442;2022-08-21T05:38:41;8.32;;;3.75;;
11486;SDS011;10510;47.942;9.442;2022-08-21T05:40:41;6.30;;;3.40;;
11486;SDS011;10510;47.942;9.442;2022-08-21T05:42:42;4.10;;;3.30;;
11486;SDS011;10510;47.942;9.442;2022-08-21T05:44:42;4.10;;;3.22;;
11486;SDS011;10510;47.942;9.442;2022-08-21T05:46:42;3.92;;;3.10;;
11486;SDS011;10510;47.942;9.442;2022-08-21T05:48:43;3.38;;;2.90;;
11486;SDS011;10510;47.942;9.442;2022-08-21T05:50:44;2.72;;;2.50;;
11486;SDS011;10510;47.942;9.442;2022-08-21T05:52:46;2.53;;;2.33;;
11486;SDS011;10510;47.942;9.442;2022-08-21T05:54:46;2.67;;;2.40;;
11486;SDS011;10510;47.942;9.442;2022-08-21T05:56:47;8.30;;;2.70;;
11486;SDS011;10510;47.942;9.442;2022-08-21T05:58:47;3.00;;;2.65;;
11486;SDS011;10510;47.942;9.442;2022-08-21T06:00:49;3.20;;;2.72;;
11486;SDS011;10510;47.942;9.442;2022-08-21T06:02:50;14.75;;;3.40;;
11486;SDS011;10510;47.942;9.442;2022-08-21T06:04:51;19.80;;;3.83;;
11486;SDS011;10510;47.942;9.442;2022-08-21T06:06:51;13.40;;;3.95;;
11486;SDS011;10510;47.942;9.442;2022-08-21T06:08:52;18.50;;;4.22;;
11486;SDS011;10510;47.942;9.442;2022-08-21T06:10:53;60.28;;;4.80;;
11486;SDS011;10510;47.942;9.442;2022-08-21T06:12:55;5.20;;;3.83;;
11486;SDS011;10510;47.942;9.442;2022-08-21T06:14:55;8.98;;;3.75;;
11486;SDS011;10510;47.942;9.442;2022-08-21T06:17:01;5.55;;;4.07;;
11486;SDS011;10510;47.942;9.442;2022-08-21T06:19:08;4.63;;;3.65;;
11486;SDS011;10510;47.942;9.442;2022-08-21T06:21:08;4.55;;;3.55;;
11486;SDS011;10510;47.942;9.442;2022-08-21T06:23:09;4.28;;;3.22;;
11486;SDS011;10510;47.942;9.442;2022-08-21T06:25:09;4.18;;;3.50;;
11486;SDS011;10510;47.942;9.442;2022-08-21T06:27:10;4.43;;;3.40;;
11486;SDS011;10510;47.942;9.442;2022-08-21T06:29:12;4.57;;;3.33;;
11486;SDS011;10510;47.942;9.442;2022-08-21T06:31:17;3.97;;;3.35;;
11486;SDS011;10510;47.942;9.442;2022-08-21T06:33:19;6.15;;;3.10;;
11486;SDS011;10510;47.942;9.442;2022-08-21T06:35:19;6.78;;;3.35;;
11486;SDS011;10510;47.942;9.442;2022-08-21T06:37:20;10.90;;;3.50;;
11486;SDS011;10510;47.942;9.442;2022-08-21T06:39:20;3.88;;;3.30;;
11486;SDS011;10510;47.942;9.442;2022-08-21T06:41:20;5.28;;;3.50;;
11486;SDS011;10510;47.942;9.442;2022-08-21T06:43:21;4.25;;;3.42;;
11486;SDS011;10510;47.942;9.442;2022-08-21T06:45:22;3.58;;;3.00;;
11486;SDS011;10510;47.942;9.442;2022-08-21T06:47:22;4.13;;;3.15;;
11486;SDS011;10510;47.942;9.442;2022-08-21T06:49:22;3.80;;;3.08;;
11486;SDS011;10510;47.942;9.442;2022-08-21T06:51:23;3.92;;;2.97;;
11486;SDS011;10510;47.942;9.442;2022-08-21T06:53:25;4.88;;;2.72;;
11486;SDS011;10510;47.942;9.442;2022-08-21T06:55:26;3.40;;;2.85;;
11486;SDS011;10510;47.942;9.442;2022-08-21T06:57:26;3.08;;;2.75;;
11486;SDS011;10510;47.942;9.442;2022-08-21T06:59:26;3.75;;;2.67;;
11486;SDS011;10510;47.942;9.442;2022-08-21T07:01:26;4.30;;;2.53;;
11486;SDS011;10510;47.942;9.442;2022-08-21T07:03:29;3.53;;;2.58;;
11486;SDS011;10510;47.942;9.442;2022-08-21T07:05:31;3.78;;;2.75;;
11486;SDS011;10510;47.942;9.442;2022-08-21T07:07:31;13.65;;;2.95;;
11486;SDS011;10510;47.942;9.442;2022-08-21T07:09:32;5.30;;;2.15;;
11486;SDS011;10510;47.942;9.442;2022-08-21T07:11:32;6.32;;;2.65;;
11486;SDS011;10510;47.942;9.442;2022-08-21T07:13:35;6.07;;;3.08;;
11486;SDS011;10510;47.942;9.442;2022-08-21T07:15:35;6.70;;;2.80;;
11486;SDS011;10510;47.942;9.442;2022-08-21T07:17:35;6.65;;;2.90;;
11486;SDS011;10510;47.942;9.442;2022-08-21T07:19:36;3.83;;;2.85;;
11486;SDS011;10510;47.942;9.442;2022-08-21T07:21:36;11.40;;;3.13;;
11486;SDS011;10510;47.942;9.442;2022-08-21T07:23:40;4.55;;;2.70;;
11486;SDS011;10510;47.942;9.442;2022-08-21T07:25:43;4.85;;;2.80;;
11486;SDS011;10510;47.942;9.442;2022-08-21T07:27:43;8.65;;;2.80;;
11486;SDS011;10510;47.942;9.442;2022-08-21T07:29:44;3.53;;;2.67;;
11486;SDS011;10510;47.942;9.442;2022-08-21T07:31:44;5.63;;;2.75;;
11486;SDS011;10510;47.942;9.442;2022-08-21T07:33:45;4.93;;;2.63;;
11486;SDS011;10510;47.942;9.442;2022-08-21T07:35:45;3.70;;;2.35;;
11486;SDS011;10510;47.942;9.442;2022-08-21T07:37:45;4.85;;;2.63;;
11486;SDS011;10510;47.942;9.442;2022-08-21T07:39:46;4.32;;;2.50;;
11486;SDS011;10510;47.942;9.442;2022-08-21T07:41:48;2.55;;;1.98;;
11486;SDS011;10510;47.942;9.442;2022-08-21T07:43:49;4.47;;;2.35;;
11486;SDS011;10510;47.942;9.442;2022-08-21T07:45:49;3.38;;;2.13;;
11486;SDS011;10510;47.942;9.442;2022-08-21T07:47:49;4.25;;;2.05;;
11486;SDS011;10510;47.942;9.442;2022-08-21T07:49:51;4.60;;;2.40;;
11486;SDS011;10510;47.942;9.442;2022-08-21T07:51:51;4.15;;;2.03;;
11486;SDS011;10510;47.942;9.442;2022-08-21T07:53:53;5.88;;;2.30;;
11486;SDS011;10510;47.942;9.442;2022-08-21T07:55:56;4.28;;;1.88;;
11486;SDS011;10510;47.942;9.442;2022-08-21T07:57:57;3.70;;;1.98;;
11486;SDS011;10510;47.942;9.442;2022-08-21T07:59:58;8.30;;;2.40;;
11486;SDS011;10510;47.942;9.442;2022-08-21T08:01:58;3.22;;;1.85;;
11486;SDS011;10510;47.942;9.442;2022-08-21T08:03:58;5.35;;;2.08;;
11486;SDS011;10510;47.942;9.442;2022-08-21T08:05:58;3.00;;;1.90;;
11486;SDS011;10510;47.942;9.442;2022-08-21T08:07:59;2.10;;;1.83;;
11486;SDS011;10510;47.942;9.442;2022-08-21T08:09:59;4.28;;;1.70;;
11486;SDS011;10510;47.942;9.442;2022-08-21T08:12:00;3.50;;;1.80;;
11486;SDS011;10510;47.942;9.442;2022-08-21T08:14:00;4.50;;;2.03;;
11486;SDS011;10510;47.942;9.442;2022-08-21T08:16:01;3.45;;;1.77;;
11486;SDS011;10510;47.942;9.442;2022-08-21T08:18:01;11.10;;;2.25;;
11486;SDS011;10510;47.942;9.442;2022-08-21T08:20:02;5.22;;;2.85;;
11486;SDS011;10510;47.942;9.442;2022-08-21T08:22:11;5.63;;;2.40;;
11486;SDS011;10510;47.942;9.442;2022-08-21T08:24:13;7.68;;;2.22;;
11486;SDS011;10510;47.942;9.442;2022-08-21T08:26:13;5.57;;;2.10;;
11486;SDS011;10510;47.942;9.442;2022-08-21T08:28:15;8.77;;;1.98;;
11486;SDS011;10510;47.942;9.442;2022-08-21T08:30:16;4.03;;;2.08;;
11486;SDS011;10510;47.942;9.442;2022-08-21T08:32:19;4.38;;;2.10;;
11486;SDS011;10510;47.942;9.442;2022-08-21T08:34:19;5.30;;;2.00;;
11486;SDS011;10510;47.942;9.442;2022-08-21T08:36:21;4.30;;;2.10;;
11486;SDS011;10510;47.942;9.442;2022-08-21T08:38:33;5.97;;;2.30;;
11486;SDS011;10510;47.942;9.442;2022-08-21T08:40:41;8.85;;;2.65;;
11486;SDS011;10510;47.942;9.442;2022-08-21T08:42:45;3.55;;;1.50;;
11486;SDS011;10510;47.942;9.442;2022-08-21T08:44:47;8.10;;;1.95;;
11486;SDS011;10510;47.942;9.442;2022-08-21T08:46:49;6.18;;;1.73;;
11486;SDS011;10510;47.942;9.442;2022-08-21T08:48:55;6.32;;;2.10;;
11486;SDS011;10510;47.942;9.442;2022-08-21T08:51:00;8.98;;;2.22;;
11486;SDS011;10510;47.942;9.442;2022-08-21T08:53:06;7.75;;;2.30;;
11486;SDS011;10510;47.942;9.442;2022-08-21T08:55:14;5.43;;;2.03;;
11486;SDS011;10510;47.942;9.442;2022-08-21T08:57:20;4.88;;;2.15;;
11486;SDS011;10510;47.942;9.442;2022-08-21T08:59:25;4.30;;;2.35;;
11486;SDS011;10510;47.942;9.442;2022-08-21T09:01:30;5.97;;;2.00;;
11486;SDS011;10510;47.942;9.442;2022-08-21T09:03:30;4.75;;;2.00;;
11486;SDS011;10510;47.942;9.442;2022-08-21T09:07:47;4.22;;;1.73;;
11486;SDS011;10510;47.942;9.442;2022-08-21T09:10:35;5.47;;;1.65;;
11486;SDS011;10510;47.942;9.442;2022-08-21T09:17:16;4.00;;;1.77;;
11486;SDS011;10510;47.942;9.442;2022-08-21T09:21:49;4.40;;;1.98;;
11486;SDS011;10510;47.942;9.442;2022-08-21T09:24:17;4.43;;;1.67;;
11486;SDS011;10510;47.942;9.442;2022-08-21T09:26:19;3.72;;;1.58;;
11486;SDS011;10510;47.942;9.442;2022-08-21T09:28:23;4.15;;;1.20;;
11486;SDS011;10510;47.942;9.442;2022-08-21T09:30:26;2.47;;;1.50;;
11486;SDS011;10510;47.942;9.442;2022-08-21T09:32:30;3.50;;;1.52;;
11486;SDS011;10510;47.942;9.442;2022-08-21T09:34:31;2.65;;;1.50;;
11486;SDS011;10510;47.942;9.442;2022-08-21T09:38:40;3.63;;;1.50;;
11486;SDS011;10510;47.942;9.442;2022-08-21T09:40:42;2.83;;;1.30;;
11486;SDS011;10510;47.942;9.442;2022-08-21T09:42:52;5.07;;;1.20;;
11486;SDS011;10510;47.942;9.442;2022-08-21T09:45:05;2.22;;;1.17;;
11486;SDS011;10510;47.942;9.442;2022-08-21T09:47:25;2.20;;;1.13;;
11486;SDS011;10510;47.942;9.442;2022-08-21T09:49:27;1.95;;;1.25;;
11486;SDS011;10510;47.942;9.442;2022-08-21T09:51:34;3.58;;;1.50;;
11486;SDS011;10510;47.942;9.442;2022-08-21T09:53:38;4.28;;;1.55;;
11486;SDS011;10510;47.942;9.442;2022-08-21T09:55:53;4.25;;;1.60;;
11486;SDS011;10510;47.942;9.442;2022-08-21T09:58:14;5.15;;;2.03;;
11486;SDS011;10510;47.942;9.442;2022-08-21T10:00:24;3.78;;;2.00;;
11486;SDS011;10510;47.942;9.442;2022-08-21T10:02:31;3.60;;;1.30;;
11486;SDS011;10510;47.942;9.442;2022-08-21T10:04:34;2.27;;;1.33;;
11486;SDS011;10510;47.942;9.442;2022-08-21T10:06:35;2.10;;;1.20;;
11486;SDS011;10510;47.942;9.442;2022-08-21T10:08:37;3.58;;;1.20;;
11486;SDS011;10510;47.942;9.442;2022-08-21T10:10:38;1.80;;;1.20;;
11486;SDS011;10510;47.942;9.442;2022-08-21T10:15:02;1.30;;;1.20;;
11486;SDS011;10510;47.942;9.442;2022-08-21T10:22:14;3.05;;;1.10;;
11486;SDS011;10510;47.942;9.442;2022-08-21T10:24:46;3.20;;;1.35;;
11486;SDS011;10510;47.942;9.442;2022-08-21T10:31:35;1.75;;;1.20;;
11486;SDS011;10510;47.942;9.442;2022-08-21T10:33:45;2.92;;;1.25;;
11486;SDS011;10510;47.942;9.442;2022-08-21T10:36:02;4.70;;;1.00;;
11486;SDS011;10510;47.942;9.442;2022-08-21T10:40:50;3.67;;;1.25;;
11486;SDS011;10510;47.942;9.442;2022-08-21T10:43:03;3.25;;;1.00;;
11486;SDS011;10510;47.942;9.442;2022-08-21T10:47:56;2.88;;;1.10;;
11486;SDS011;10510;47.942;9.442;2022-08-21T10:52:33;3.55;;;1.20;;
11486;SDS011;10510;47.942;9.442;2022-08-21T10:56:56;2.35;;;1.00;;
11486;SDS011;10510;47.942;9.442;2022-08-21T10:59:05;2.00;;;1.13;;
11486;SDS011;10510;47.942;9.442;2022-08-21T11:01:25;3.58;;;1.13;;
11486;SDS011;10510;47.942;9.442;2022-08-21T11:03:38;1.95;;;1.10;;
11486;SDS011;10510;47.942;9.442;2022-08-21T11:07:49;3.53;;;1.20;;
11486;SDS011;10510;47.942;9.442;2022-08-21T11:09:57;4.47;;;1.25;;
11486;SDS011;10510;47.942;9.442;2022-08-21T11:12:05;1.52;;;1.10;;
11486;SDS011;10510;47.942;9.442;2022-08-21T11:14:34;3.35;;;1.10;;
11486;SDS011;10510;47.942;9.442;2022-08-21T11:16:57;4.40;;;1.02;;
11486;SDS011;10510;47.942;9.442;2022-08-21T11:19:10;2.25;;;1.10;;
11486;SDS011;10510;47.942;9.442;2022-08-21T11:23:43;2.33;;;1.00;;
11486;SDS011;10510;47.942;9.442;2022-08-21T11:25:55;2.25;;;1.17;;
11486;SDS011;10510;47.942;9.442;2022-08-21T11:28:02;4.50;;;1.15;;
11486;SDS011;10510;47.942;9.442;2022-08-21T11:30:09;4.35;;;1.10;;
11486;SDS011;10510;47.942;9.442;2022-08-21T11:32:26;5.22;;;1.13;;
11486;SDS011;10510;47.942;9.442;2022-08-21T11:34:44;3.75;;;1.20;;
11486;SDS011;10510;47.942;9.442;2022-08-21T11:42:21;3.08;;;1.42;;
11486;SDS011;10510;47.942;9.442;2022-08-21T11:44:46;3.92;;;1.10;;
11486;SDS011;10510;47.942;9.442;2022-08-21T11:49:31;1.67;;;1.23;;
11486;SDS011;10510;47.942;9.442;2022-08-21T11:51:48;3.05;;;0.85;;
11486;SDS011;10510;47.942;9.442;2022-08-21T11:54:09;1.08;;;0.70;;
11486;SDS011;10510;47.942;9.442;2022-08-21T11:56:17;3.70;;;0.82;;
11486;SDS011;10510;47.942;9.442;2022-08-21T12:00:47;3.15;;;1.02;;
11486;SDS011;10510;47.942;9.442;2022-08-21T12:02:55;2.55;;;0.80;;
11486;SDS011;10510;47.942;9.442;2022-08-21T12:05:03;4.40;;;1.33;;
11486;SDS011;10510;47.942;9.442;2022-08-21T12:07:13;2.05;;;0.95;;
11486;SDS011;10510;47.942;9.442;2022-08-21T12:09:32;1.30;;;0.98;;
11486;SDS011;10510;47.942;9.442;2022-08-21T12:11:45;2.30;;;1.27;;
11486;SDS011;10510;47.942;9.442;2022-08-21T12:13:57;2.33;;;0.90;;
11486;SDS011;10510;47.942;9.442;2022-08-21T12:16:07;1.45;;;1.02;;
11486;SDS011;10510;47.942;9.442;2022-08-21T12:18:27;2.78;;;1.00;;
11486;SDS011;10510;47.942;9.442;2022-08-21T12:20:44;2.13;;;0.82;;
11486;SDS011;10510;47.942;9.442;2022-08-21T12:25:10;2.95;;;0.98;;
11486;SDS011;10510;47.942;9.442;2022-08-21T12:27:29;3.53;;;0.80;;
11486;SDS011;10510;47.942;9.442;2022-08-21T12:29:45;3.40;;;1.23;;
11486;SDS011;10510;47.942;9.442;2022-08-21T12:31:52;4.80;;;1.07;;
11486;SDS011;10510;47.942;9.442;2022-08-21T12:33:54;3.45;;;1.23;;
11486;SDS011;10510;47.942;9.442;2022-08-21T12:36:42;6.93;;;1.00;;
11486;SDS011;10510;47.942;9.442;2022-08-21T12:38:29;2.28;;;0.98;;
11486;SDS011;10510;47.942;9.442;2022-08-21T12:40:40;1.90;;;1.08;;
11486;SDS011;10510;47.942;9.442;2022-08-21T12:42:47;3.75;;;0.85;;
11486;SDS011;10510;47.942;9.442;2022-08-21T12:44:53;1.67;;;0.90;;
11486;SDS011;10510;47.942;9.442;2022-08-21T12:47:01;4.00;;;1.55;;
11486;SDS011;10510;47.942;9.442;2022-08-21T12:49:13;1.48;;;0.82;;
11486;SDS011;10510;47.942;9.442;2022-08-21T12:51:22;2.50;;;1.00;;
11486;SDS011;10510;47.942;9.442;2022-08-21T12:53:31;1.73;;;1.00;;
11486;SDS011;10510;47.942;9.442;2022-08-21T12:55:42;1.00;;;0.80;;
11486;SDS011;10510;47.942;9.442;2022-08-21T12:57:43;2.42;;;1.00;;
11486;SDS011;10510;47.942;9.442;2022-08-21T12:59:43;3.67;;;2.28;;
11486;SDS011;10510;47.942;9.442;2022-08-21T13:01:46;0.77;;;0.77;;
11486;SDS011;10510;47.942;9.442;2022-08-21T13:03:49;2.92;;;0.90;;
11486;SDS011;10510;47.942;9.442;2022-08-21T13:05:51;4.22;;;0.85;;
11486;SDS011;10510;47.942;9.442;2022-08-21T13:07:53;2.90;;;1.00;;
11486;SDS011;10510;47.942;9.442;2022-08-21T13:09:58;2.80;;;0.95;;
11486;SDS011;10510;47.942;9.442;2022-08-21T13:12:07;2.00;;;1.10;;
11486;SDS011;10510;47.942;9.442;2022-08-21T13:16:40;1.88;;;0.82;;
11486;SDS011;10510;47.942;9.442;2022-08-21T13:18:51;1.55;;;0.88;;
11486;SDS011;10510;47.942;9.442;2022-08-21T13:21:07;1.00;;;0.88;;
11486;SDS011;10510;47.942;9.442;2022-08-21T13:23:19;3.13;;;0.82;;